Time;durP1;ratioP1;P1;durP2;ratioP2;P2;SDS_P1;SDS_P2;PMS_P1;PMS_P2;Temp;Humidity;BMP_temperature;BMP_pressure;BME280_temperature;BME280_humidity;BME280_pressure;Samples;Min_cycle;Max_cycle;Signal;HPM_P1;HPM_P2
2024/04/10 00:00:38;;;;;;;7.30;2.88;;;9.30;99.90;;;;;;13530066;26;20002;-35
2024/04/10 00:06:40;;;;;;;6.60;1.95;;;9.30;99.90;;;;;;13522069;26;20003;-35
2024/04/10 00:12:42;;;;;;;7.05;2.10;;;9.20;99.90;;;;;;13513227;26;19998;-36
2024/04/10 00:18:44;;;;;;;8.63;2.20;;;9.20;99.90;;;;;;13530618;26;20007;-36
2024/04/10 00:24:46;;;;;;;7.63;2.28;;;9.10;99.90;;;;;;13516721;26;20014;-35
2024/04/10 00:30:48;;;;;;;7.97;2.10;;;9.00;99.90;;;;;;13517655;26;20007;-35
2024/04/10 00:36:51;;;;;;;8.35;2.80;;;9.00;99.90;;;;;;13489449;26;21873;-35
2024/04/10 00:42:53;;;;;;;8.57;2.58;;;8.90;99.90;;;;;;13472251;26;20009;-35
2024/04/10 00:48:55;;;;;;;9.23;2.30;;;9.00;99.90;;;;;;13483752;26;20044;-35
2024/04/10 00:54:57;;;;;;;7.85;2.10;;;9.00;99.90;;;;;;13501501;26;20013;-36
2024/04/10 01:01:00;;;;;;;9.52;1.83;;;8.90;99.90;;;;;;13465605;26;20003;-35
2024/04/10 01:07:09;;;;;;;8.70;2.00;;;8.90;99.90;;;;;;13497045;26;20447;-35
2024/04/10 01:13:11;;;;;;;6.65;1.60;;;8.90;99.90;;;;;;13497782;26;20003;-36
2024/04/10 01:19:16;;;;;;;12.07;2.05;;;8.80;99.90;;;;;;13479586;26;20467;-35
2024/04/10 01:25:18;;;;;;;7.35;2.10;;;8.70;99.90;;;;;;13503366;26;19995;-35
2024/04/10 01:31:20;;;;;;;9.75;2.53;;;8.80;99.90;;;;;;13460476;26;20009;-35
2024/04/10 01:37:22;;;;;;;11.25;1.98;;;8.80;99.90;;;;;;13473734;26;20400;-35
2024/04/10 01:43:24;;;;;;;15.85;2.33;;;8.90;99.90;;;;;;13509584;26;20054;-38
2024/04/10 01:49:26;;;;;;;10.23;1.90;;;8.70;99.90;;;;;;13506794;26;20010;-35
2024/04/10 01:55:28;;;;;;;7.57;2.42;;;8.60;99.90;;;;;;13517352;26;20024;-36
2024/04/10 02:01:30;;;;;;;13.25;2.35;;;8.70;99.90;;;;;;13518341;26;20082;-35
2024/04/10 02:07:32;;;;;;;10.20;2.47;;;8.80;99.90;;;;;;13508711;26;20386;-35
2024/04/10 02:13:34;;;;;;;10.70;2.30;;;8.90;99.90;;;;;;13527500;26;20040;-35
2024/04/10 02:19:36;;;;;;;12.93;2.38;;;8.90;99.90;;;;;;13506023;26;20010;-35
2024/04/10 02:25:38;;;;;;;13.77;2.90;;;8.80;99.90;;;;;;13510297;26;19999;-35
2024/04/10 02:31:40;;;;;;;8.75;2.00;;;8.90;99.90;;;;;;13506694;26;20002;-35
2024/04/10 02:37:42;;;;;;;14.35;2.83;;;8.90;99.90;;;;;;13461794;26;20058;-36
2024/04/10 02:43:44;;;;;;;11.18;2.53;;;8.80;99.90;;;;;;13491833;26;20014;-35
2024/04/10 02:49:46;;;;;;;14.57;2.28;;;8.90;99.90;;;;;;13481261;26;20004;-36
2024/04/10 02:55:50;;;;;;;15.57;2.20;;;8.90;99.90;;;;;;13494639;26;20002;-35
2024/04/10 03:01:52;;;;;;;11.43;2.33;;;9.00;99.90;;;;;;13494920;26;20003;-35
2024/04/10 03:07:54;;;;;;;15.13;3.30;;;9.00;99.90;;;;;;13521932;26;20077;-35
2024/04/10 03:13:56;;;;;;;10.85;2.42;;;9.10;99.90;;;;;;13463126;26;20081;-35
2024/04/10 03:19:59;;;;;;;11.30;2.80;;;9.20;99.90;;;;;;13485330;26;19999;-35
2024/04/10 03:26:05;;;;;;;13.48;2.65;;;9.30;99.90;;;;;;13483488;26;20014;-36
2024/04/10 03:32:07;;;;;;;18.05;2.45;;;9.40;99.90;;;;;;13464183;26;20426;-35
2024/04/10 03:38:09;;;;;;;10.23;2.33;;;9.30;99.90;;;;;;13520668;26;20520;-35
2024/04/10 03:44:11;;;;;;;10.85;2.58;;;9.30;99.90;;;;;;13500085;26;20000;-35
2024/04/10 03:50:14;;;;;;;11.02;2.08;;;9.30;99.90;;;;;;13516047;26;20011;-35
2024/04/10 03:56:20;;;;;;;9.98;2.70;;;9.30;99.90;;;;;;13524443;26;19999;-36
2024/04/10 04:02:22;;;;;;;11.50;3.92;;;9.20;99.90;;;;;;13515259;26;20014;-35
2024/04/10 04:08:24;;;;;;;12.05;2.78;;;9.10;99.90;;;;;;13511475;26;20031;-35
2024/04/10 04:14:27;;;;;;;13.68;2.55;;;9.20;99.90;;;;;;13531736;26;20018;-35
2024/04/10 04:20:30;;;;;;;10.88;2.83;;;9.20;99.90;;;;;;13530804;26;20485;-36
2024/04/10 04:26:32;;;;;;;8.07;2.17;;;9.10;99.90;;;;;;13539837;26;20737;-34
2024/04/10 04:32:35;;;;;;;9.45;2.40;;;9.10;99.90;;;;;;13463431;26;20464;-35
2024/04/10 04:38:37;;;;;;;11.77;2.60;;;9.20;99.90;;;;;;13481168;26;20003;-35
2024/04/10 04:44:39;;;;;;;14.23;3.45;;;9.10;99.90;;;;;;13464276;26;20007;-35
2024/04/10 04:50:42;;;;;;;8.90;2.75;;;9.00;99.90;;;;;;13483500;26;20002;-35
2024/04/10 04:56:44;;;;;;;9.65;2.47;;;9.00;99.90;;;;;;13483606;26;20965;-35
2024/04/10 05:02:46;;;;;;;10.85;2.13;;;8.90;99.90;;;;;;13502081;26;20004;-36
2024/04/10 05:08:49;;;;;;;13.30;2.75;;;8.80;99.90;;;;;;13508468;26;20003;-36
2024/04/10 05:14:51;;;;;;;13.18;2.95;;;8.80;99.90;;;;;;13481546;26;20460;-35
2024/04/10 05:20:53;;;;;;;12.43;2.80;;;8.90;99.90;;;;;;13464282;26;20347;-35
2024/04/10 05:26:55;;;;;;;13.77;3.03;;;8.90;99.90;;;;;;13475645;26;20068;-35
2024/04/10 05:32:57;;;;;;;10.65;3.17;;;9.00;99.90;;;;;;13482983;26;20021;-35
2024/04/10 05:39:00;;;;;;;8.85;2.33;;;9.10;99.90;;;;;;13525208;26;20003;-36
2024/04/10 05:45:10;;;;;;;6.18;2.00;;;9.10;99.90;;;;;;13526199;26;20637;-35
2024/04/10 05:51:12;;;;;;;8.93;2.10;;;9.00;99.90;;;;;;13520717;26;20006;-35
2024/04/10 05:57:15;;;;;;;5.85;1.83;;;9.00;99.90;;;;;;13510271;26;20016;-35
2024/04/10 06:03:17;;;;;;;8.27;2.50;;;9.10;99.90;;;;;;13505187;26;19995;-35
2024/04/10 06:09:19;;;;;;;7.55;2.28;;;9.10;99.90;;;;;;13498999;26;20055;-35
2024/04/10 06:15:21;;;;;;;8.55;2.38;;;9.10;99.90;;;;;;13516934;26;20003;-35
2024/04/10 06:21:23;;;;;;;8.48;2.40;;;9.20;99.90;;;;;;13492641;26;20448;-35
2024/04/10 06:27:25;;;;;;;14.95;3.22;;;9.40;99.90;;;;;;13516084;26;19998;-35
2024/04/10 06:33:27;;;;;;;11.55;3.42;;;9.30;99.90;;;;;;13510343;26;20046;-35
2024/04/10 06:39:29;;;;;;;13.30;3.28;;;9.20;99.90;;;;;;13451363;26;20000;-35
2024/04/10 06:45:31;;;;;;;17.67;3.42;;;9.50;99.90;;;;;;13504197;26;20486;-35
2024/04/10 06:51:34;;;;;;;9.77;2.80;;;9.70;99.90;;;;;;13481723;26;20328;-35
2024/04/10 06:57:36;;;;;;;12.18;3.50;;;9.70;99.90;;;;;;13505567;26;20023;-36
2024/04/10 07:03:41;;;;;;;11.75;3.42;;;9.70;99.90;;;;;;13496951;26;20582;-35
2024/04/10 07:09:43;;;;;;;;;;;9.60;99.90;;;;;;13517402;26;20026;-40
2024/04/10 07:15:45;;;;;;;14.27;3.38;;;9.80;99.90;;;;;;13525214;26;20355;-38
2024/04/10 07:21:48;;;;;;;11.18;3.58;;;10.00;99.90;;;;;;13527562;26;20733;-35
2024/04/10 07:27:50;;;;;;;10.95;3.58;;;10.10;99.90;;;;;;13455933;26;20011;-35
2024/04/10 07:33:52;;;;;;;15.93;3.35;;;10.20;99.90;;;;;;13506582;26;20019;-35
2024/04/10 07:39:54;;;;;;;9.30;4.13;;;10.20;99.90;;;;;;13518257;26;20013;-35
2024/04/10 07:46:29;;;;;;;13.45;3.90;;;10.10;99.90;;;;;;13522503;26;20003;-35
2024/04/10 07:52:31;;;;;;;13.45;3.78;;;10.40;99.90;;;;;;13482581;26;19998;-35
2024/04/10 07:58:34;;;;;;;12.45;3.63;;;10.40;99.90;;;;;;13521742;26;20007;-35
2024/04/10 08:04:36;;;;;;;15.32;4.20;;;10.70;99.90;;;;;;13515708;26;20353;-35
2024/04/10 08:10:38;;;;;;;9.63;3.22;;;10.80;99.90;;;;;;13522870;26;20043;-35
2024/04/10 08:16:40;;;;;;;13.43;3.88;;;11.00;99.90;;;;;;13507885;26;20015;-35
2024/04/10 08:22:42;;;;;;;11.18;3.70;;;11.20;99.90;;;;;;13541545;26;20101;-35
2024/04/10 08:28:48;;;;;;;11.88;3.90;;;10.70;99.90;;;;;;13465401;26;20075;-35
2024/04/10 08:34:51;;;;;;;13.88;3.65;;;10.70;99.90;;;;;;13501169;26;20370;-35
2024/04/10 08:40:55;;;;;;;10.30;3.28;;;10.50;99.90;;;;;;13496527;26;20003;-35
2024/04/10 08:46:58;;;;;;;9.63;3.63;;;10.50;99.90;;;;;;13485196;26;20688;-35
2024/04/10 08:53:02;;;;;;;12.60;3.73;;;10.60;99.90;;;;;;13451745;26;20355;-35
2024/04/10 08:59:04;;;;;;;8.73;2.93;;;10.70;99.90;;;;;;13496168;26;20334;-35
2024/04/10 09:05:06;;;;;;;40.70;6.28;;;10.90;99.90;;;;;;13502980;26;20018;-35
2024/04/10 09:11:08;;;;;;;10.75;2.88;;;10.80;99.90;;;;;;13496920;26;20017;-35
2024/04/10 09:17:11;;;;;;;13.95;2.97;;;10.90;99.90;;;;;;13510365;26;20018;-35
2024/04/10 09:23:15;;;;;;;9.35;2.50;;;11.30;99.90;;;;;;13469452;26;20042;-35
2024/04/10 09:29:19;;;;;;;15.82;3.08;;;11.30;99.90;;;;;;13451581;26;20461;-35
2024/04/10 09:35:25;;;;;;;8.05;3.17;;;12.10;99.90;;;;;;13510883;26;20022;-36
2024/04/10 09:41:28;;;;;;;6.88;3.00;;;12.80;99.90;;;;;;13490621;26;19998;-36
2024/04/10 09:47:32;;;;;;;6.60;2.60;;;12.50;99.90;;;;;;13499427;26;20002;-36
2024/04/10 09:53:35;;;;;;;8.63;3.15;;;12.10;99.90;;;;;;13513706;26;20629;-36
2024/04/10 09:59:38;;;;;;;6.45;2.97;;;12.60;99.90;;;;;;13544747;26;20006;-36
2024/04/10 10:05:40;;;;;;;9.27;3.45;;;12.90;99.90;;;;;;13527728;26;20003;-36
2024/04/10 10:11:58;;;;;;;6.43;2.65;;;12.50;99.90;;;;;;13525200;26;20082;-36
2024/04/10 10:18:00;;;;;;;7.80;2.58;;;12.80;99.90;;;;;;13540308;26;20003;-36
2024/04/10 10:24:06;;;;;;;7.68;2.50;;;13.60;99.90;;;;;;13575401;26;20003;-36
2024/04/10 10:30:10;;;;;;;7.07;2.95;;;13.10;99.90;;;;;;13502639;26;20021;-36
2024/04/10 10:36:12;;;;;;;10.17;3.10;;;12.80;99.90;;;;;;13494003;26;19998;-36
2024/04/10 10:42:14;;;;;;;7.63;2.90;;;13.00;99.90;;;;;;13487116;26;20003;-36
2024/04/10 10:48:17;;;;;;;15.48;3.08;;;13.40;99.90;;;;;;13508713;26;20400;-36
2024/04/10 10:54:19;;;;;;;8.27;2.85;;;13.50;99.90;;;;;;13474797;26;20908;-36
2024/04/10 11:00:22;;;;;;;12.00;3.95;;;13.40;99.90;;;;;;13511223;26;20018;-36
2024/04/10 11:06:25;;;;;;;7.93;2.92;;;13.10;99.90;;;;;;13489589;26;20047;-35
2024/04/10 11:12:27;;;;;;;9.52;2.60;;;13.50;99.90;;;;;;13536913;26;20057;-36
2024/04/10 11:18:29;;;;;;;9.35;3.58;;;14.10;99.90;;;;;;13512712;26;20005;-36
2024/04/10 11:24:31;;;;;;;8.52;3.05;;;14.50;99.90;;;;;;13490072;26;19995;-36
2024/04/10 11:30:34;;;;;;;7.13;3.20;;;14.80;99.90;;;;;;13463766;26;20025;-36
2024/04/10 11:36:36;;;;;;;6.03;2.88;;;15.10;99.90;;;;;;13526271;26;20017;-36
2024/04/10 11:42:39;;;;;;;12.63;3.00;;;14.90;99.90;;;;;;13497410;26;20465;-36
2024/04/10 11:48:41;;;;;;;6.93;3.05;;;14.20;99.90;;;;;;13478967;26;20011;-36
2024/04/10 11:54:43;;;;;;;7.15;2.63;;;13.90;99.90;;;;;;13511199;26;20003;-36
2024/04/10 12:00:45;;;;;;;6.50;2.53;;;14.20;99.90;;;;;;13487168;26;20003;-38
2024/04/10 12:06:47;;;;;;;7.53;2.60;;;14.20;99.90;;;;;;13484344;26;20017;-35
2024/04/10 12:12:49;;;;;;;7.57;2.78;;;13.50;99.90;;;;;;13482844;26;20003;-36
2024/04/10 12:18:51;;;;;;;8.40;3.58;;;13.40;99.90;;;;;;13492818;26;20002;-36
2024/04/10 12:24:53;;;;;;;11.15;3.53;;;13.60;99.90;;;;;;13541033;26;20013;-36
2024/04/10 12:30:56;;;;;;;10.18;3.50;;;14.00;99.90;;;;;;13485608;26;20025;-36
2024/04/10 12:43:19;;;;;;;8.07;3.60;;;15.10;99.90;;;;;;13553196;26;20576;-36
2024/04/10 12:49:22;;;;;;;8.95;4.20;;;14.80;99.90;;;;;;13526814;26;20009;-36
2024/04/10 12:55:24;;;;;;;8.30;3.67;;;13.80;99.90;;;;;;13515059;26;20042;-36
2024/04/10 13:01:26;;;;;;;7.75;3.00;;;14.30;99.90;;;;;;13510242;26;20044;-36
2024/04/10 13:07:28;;;;;;;8.25;3.17;;;14.80;99.90;;;;;;13511575;26;20709;-36
2024/04/10 13:13:30;;;;;;;11.98;3.75;;;14.40;99.90;;;;;;13508987;26;20328;-36
2024/04/10 13:19:38;;;;;;;6.95;3.08;;;13.80;99.90;;;;;;13484406;26;20470;-36
2024/04/10 13:25:40;;;;;;;8.52;3.80;;;13.30;99.90;;;;;;13474124;26;20483;-36
2024/04/10 13:31:43;;;;;;;7.13;3.10;;;13.20;99.90;;;;;;13495817;26;20475;-35
2024/04/10 13:37:45;;;;;;;9.23;3.42;;;13.30;99.90;;;;;;13508764;26;20562;-36
2024/04/10 13:43:51;;;;;;;9.50;3.40;;;12.90;99.90;;;;;;13517861;26;20038;-36
2024/04/10 13:49:53;;;;;;;9.10;3.40;;;12.70;99.90;;;;;;13522498;26;20009;-35
2024/04/10 13:56:05;;;;;;;9.77;3.55;;;12.80;99.90;;;;;;13536843;26;20002;-36
2024/04/10 14:02:07;;;;;;;11.77;3.78;;;12.90;99.90;;;;;;13559772;26;20021;-36
2024/04/10 14:08:10;;;;;;;7.93;3.50;;;13.00;99.90;;;;;;13557285;26;20028;-36
2024/04/10 14:14:12;;;;;;;8.07;3.47;;;12.90;99.90;;;;;;13544662;26;20002;-36
2024/04/10 14:20:14;;;;;;;7.20;2.80;;;13.10;99.90;;;;;;13558196;26;20007;-36
2024/04/10 14:26:17;;;;;;;9.80;3.35;;;13.20;99.90;;;;;;13573514;26;20536;-36
2024/04/10 14:32:19;;;;;;;7.50;3.10;;;13.40;99.90;;;;;;13533480;26;20016;-36
2024/04/10 14:38:22;;;;;;;6.63;2.70;;;13.50;99.90;;;;;;13553310;26;20002;-36
2024/04/10 14:51:01;;;;;;;4.95;2.67;;;13.40;99.90;;;;;;13476898;26;20780;-35
2024/04/10 14:57:04;;;;;;;7.38;3.15;;;13.40;99.90;;;;;;13478919;26;19999;-35
2024/04/10 15:03:06;;;;;;;6.57;2.90;;;13.80;99.90;;;;;;13499686;26;20003;-36
2024/04/10 15:09:11;;;;;;;6.45;3.10;;;14.30;99.90;;;;;;13495358;26;19999;-36
2024/04/10 15:15:15;;;;;;;7.65;3.78;;;14.30;99.90;;;;;;13488229;26;20024;-36
2024/04/10 15:21:17;;;;;;;7.05;3.90;;;14.90;99.90;;;;;;13509779;26;19999;-36
2024/04/10 15:27:19;;;;;;;6.28;3.85;;;14.80;99.90;;;;;;13518558;26;20577;-36
2024/04/10 15:33:21;;;;;;;5.75;3.60;;;15.10;99.90;;;;;;13508711;26;20028;-36
2024/04/10 15:39:24;;;;;;;6.95;4.05;;;15.10;99.90;;;;;;13498715;26;20008;-36
2024/04/10 15:45:29;;;;;;;9.32;4.32;;;14.80;99.90;;;;;;13515760;26;20020;-36
2024/04/10 15:51:31;;;;;;;6.63;4.45;;;14.70;99.90;;;;;;13496055;26;20366;-36
2024/04/10 15:57:33;;;;;;;7.60;4.68;;;14.50;99.90;;;;;;13544054;26;19998;-36
2024/04/10 16:03:38;;;;;;;8.32;4.93;;;14.40;99.90;;;;;;13520450;26;20031;-36
2024/04/10 16:09:41;;;;;;;8.50;5.00;;;14.40;99.90;;;;;;13542788;26;20335;-36
2024/04/10 16:15:43;;;;;;;8.48;5.30;;;14.70;99.90;;;;;;13546617;26;20003;-36
2024/04/10 16:21:45;;;;;;;9.65;4.72;;;14.70;99.90;;;;;;13534206;26;19998;-36
2024/04/10 16:27:47;;;;;;;6.95;4.10;;;14.80;99.90;;;;;;13519857;26;20007;-36
2024/04/10 16:33:50;;;;;;;13.75;4.20;;;14.90;99.90;;;;;;13510424;26;20053;-36
2024/04/10 16:39:53;;;;;;;;;;;14.40;99.90;;;;;;13539898;26;20025;-36
2024/04/10 16:47:29;;;;;;;6.47;3.08;;;14.60;99.90;;;;;;13609784;25;20091;-36
2024/04/10 16:53:31;;;;;;;10.55;3.10;;;14.80;99.90;;;;;;13589377;26;20429;-35
2024/04/10 16:59:33;;;;;;;8.75;3.45;;;14.90;99.90;;;;;;13605573;26;19998;-35
2024/04/10 17:05:36;;;;;;;7.70;3.33;;;14.80;99.90;;;;;;13547476;26;20001;-35
2024/04/10 17:11:38;;;;;;;6.18;2.97;;;14.70;99.90;;;;;;13599781;26;20003;-35
2024/04/10 17:24:02;;;;;;;7.78;3.42;;;14.30;99.90;;;;;;13522785;26;20166;-35
2024/04/10 17:30:06;;;;;;;7.30;3.40;;;14.00;99.90;;;;;;13535581;26;20018;-35
2024/04/10 17:36:08;;;;;;;5.88;3.10;;;13.60;99.90;;;;;;13537908;26;20006;-35
2024/04/10 17:42:11;;;;;;;7.38;3.00;;;13.50;99.90;;;;;;13567593;26;20455;-35
2024/04/10 17:48:13;;;;;;;7.05;3.20;;;13.30;99.90;;;;;;13581108;26;20006;-35
2024/04/10 17:54:16;;;;;;;6.65;3.30;;;12.90;99.90;;;;;;13518848;26;20014;-35
2024/04/10 18:00:18;;;;;;;15.77;5.97;;;12.60;99.90;;;;;;13533147;26;20493;-35
2024/04/10 18:06:21;;;;;;;6.38;3.13;;;12.50;99.90;;;;;;13526990;26;20039;-35
2024/04/10 18:12:23;;;;;;;6.80;2.83;;;12.20;99.90;;;;;;13532780;26;20007;-35
2024/04/10 18:18:26;;;;;;;6.03;2.90;;;11.90;99.90;;;;;;13518102;26;20042;-35
2024/04/10 18:24:28;;;;;;;4.88;2.63;;;11.80;99.90;;;;;;13545963;26;19994;-35
2024/04/10 18:30:30;;;;;;;10.13;2.88;;;11.70;99.90;;;;;;13492814;26;20463;-35
2024/04/10 18:36:32;;;;;;;7.95;2.88;;;11.50;99.90;;;;;;13562595;26;20017;-35
2024/04/10 18:42:35;;;;;;;5.50;2.60;;;11.30;99.90;;;;;;13538831;26;20026;-35
2024/04/10 18:48:37;;;;;;;10.38;2.50;;;11.10;99.90;;;;;;13554078;26;20023;-36
2024/04/10 18:54:40;;;;;;;10.40;2.70;;;10.90;99.90;;;;;;13510188;26;20010;-34
2024/04/10 19:00:42;;;;;;;4.72;2.55;;;10.90;99.90;;;;;;13573664;26;20104;-35
2024/04/10 19:06:52;;;;;;;7.97;3.30;;;10.80;99.90;;;;;;13563256;26;20015;-35
2024/04/10 19:12:54;;;;;;;7.70;2.70;;;10.60;99.90;;;;;;13515803;26;20029;-35
2024/04/10 19:18:56;;;;;;;8.15;2.90;;;10.50;99.90;;;;;;13504745;26;20019;-35
2024/04/10 19:24:59;;;;;;;5.10;2.60;;;10.40;99.90;;;;;;13524171;26;20531;-35
2024/04/10 19:31:02;;;;;;;6.35;2.78;;;10.30;99.90;;;;;;13491455;26;20002;-36
2024/04/10 19:37:04;;;;;;;12.33;3.67;;;10.30;99.90;;;;;;13544286;26;20508;-35
2024/04/10 19:43:08;;;;;;;10.05;3.20;;;10.30;99.90;;;;;;13513935;26;19998;-35
2024/04/10 19:49:10;;;;;;;10.52;3.28;;;10.20;99.90;;;;;;13507201;26;20011;-35
2024/04/10 19:55:12;;;;;;;8.23;3.50;;;10.10;99.90;;;;;;13512540;26;20002;-35
2024/04/10 20:01:14;;;;;;;9.10;3.20;;;10.00;99.90;;;;;;13529425;26;20004;-35
2024/04/10 20:07:16;;;;;;;9.05;3.40;;;9.90;99.90;;;;;;13521794;26;19998;-35
2024/04/10 20:13:18;;;;;;;10.10;3.33;;;9.80;99.90;;;;;;13528168;26;20049;-35
2024/04/10 20:19:20;;;;;;;8.98;3.33;;;9.70;99.90;;;;;;13513514;26;20462;-35
2024/04/10 20:25:23;;;;;;;6.97;3.20;;;9.60;99.90;;;;;;13549656;26;20404;-35
2024/04/10 20:31:25;;;;;;;12.40;3.63;;;9.50;99.90;;;;;;13492802;26;20452;-35
2024/04/10 20:37:29;;;;;;;8.18;3.30;;;9.60;99.90;;;;;;13527194;26;20019;-35
2024/04/10 20:43:32;;;;;;;10.07;3.63;;;9.50;99.90;;;;;;13489098;26;19998;-35
2024/04/10 20:49:34;;;;;;;7.00;2.72;;;9.30;99.90;;;;;;13499390;26;20046;-35
2024/04/10 20:55:36;;;;;;;9.85;3.70;;;9.20;99.90;;;;;;13499917;26;19998;-35
2024/04/10 21:01:38;;;;;;;9.18;3.47;;;9.30;99.90;;;;;;13553035;26;20013;-35
2024/04/10 22:11:07;;;;;;;6.15;2.72;;;9.30;99.90;;;;;;13557028;26;20034;-35
2024/04/10 22:29:52;;;;;;;6.45;3.03;;;9.20;99.90;;;;;;13489938;26;20079;-35
2024/04/10 22:35:55;;;;;;;9.05;3.00;;;9.10;99.90;;;;;;13525862;26;20002;-35
2024/04/10 22:41:58;;;;;;;7.55;2.90;;;9.30;99.90;;;;;;13520592;26;20006;-35
2024/04/10 22:48:00;;;;;;;8.35;3.42;;;9.30;99.90;;;;;;13517315;26;20017;-35
2024/04/10 22:54:03;;;;;;;5.60;2.88;;;9.20;99.90;;;;;;13529408;26;20006;-35
2024/04/10 23:00:06;;;;;;;7.18;3.10;;;9.20;99.90;;;;;;13570832;26;20422;-35
2024/04/10 23:06:08;;;;;;;6.82;2.90;;;9.20;99.90;;;;;;13569490;26;20022;-35
2024/04/10 23:12:10;;;;;;;5.47;2.50;;;9.20;99.90;;;;;;13580430;26;20018;-35
2024/04/10 23:18:12;;;;;;;7.40;2.90;;;9.20;99.90;;;;;;13488212;26;20007;-35
2024/04/10 23:24:32;;;;;;;10.77;3.42;;;9.20;99.90;;;;;;13512886;26;20466;-35
2024/04/10 23:30:34;;;;;;;7.80;2.47;;;9.20;99.90;;;;;;13472325;26;20030;-35
2024/04/10 23:36:36;;;;;;;5.95;2.85;;;9.20;99.90;;;;;;13527422;26;20002;-35
2024/04/10 23:42:38;;;;;;;6.13;2.83;;;9.00;99.90;;;;;;13507530;26;20822;-35
2024/04/10 23:48:40;;;;;;;5.70;2.70;;;8.90;99.90;;;;;;13530718;26;20011;-35
2024/04/10 23:54:42;;;;;;;12.43;6.60;;;8.80;99.90;;;;;;13523074;26;20384;-35
